EDDS/STR METAR and TAF weather

Enter ICAO airport designator
Station Type Date Time Source
EDDS METAR 2019/12/13 01:20 UTC NOAA

EDDS 130120Z 15005KT 5000 -SN FEW005 SCT010 BKN020 01/M02 Q0988


Station Type Date Time Source
EDDS Decoded METAR 2019/12/13 01:20 UTC NOAA

Stuttgart-Echterdingen, Germany (EDDS) 48-41N 009-13E 391M
Dec 12, 2019 - 08:20 PM EST / 2019.12.13 0120 UTC
Wind: from the SSE (150 degrees) at 6 MPH (5 KT):0
Visibility: 3 mile(s):0
Sky conditions: mostly cloudy
Weather: light snow
Temperature: 33 F (1 C)
Windchill: 26 F (-3 C):1
Dew Point: 28 F (-2 C)
Relative Humidity: 80%
Pressure (altimeter): 29.18 in. Hg (0988 hPa)
ob: EDDS 130120Z 15005KT 5000 -SN FEW005 SCT010 BKN020 01/M02 Q0988
cycle: 1

Station Type Date Time Source
EDDS TAF 2019/12/12 18:27 UTC NOAA

TAF EDDS 121700Z 1218/1318 18005KT 9999 FEW015 BKN040
BECMG 1218/1220 12004KT
TEMPO 1302/1309 4000 SNRA BKN010 PROB30
TEMPO 1302/1308 1200 SN BKN005
BECMG 1308/1311 20009KT
TEMPO 1309/1311 RA BKN010 PROB30
TEMPO 1311/1318 25015G25KT 3000 SHRASN BKN014TCU

Example: see airport list